createdAt,value
2016-05-24T00:00:56.404Z,0
2016-05-24T00:01:56.422Z,0
2016-05-24T00:02:56.410Z,0
2016-05-24T00:03:56.412Z,0
2016-05-24T00:04:56.571Z,0
2016-05-24T00:05:56.558Z,0
2016-05-24T00:06:56.561Z,0
2016-05-24T00:07:56.547Z,0
2016-05-24T00:08:56.550Z,0
2016-05-24T00:09:56.553Z,0
2016-05-24T00:10:56.556Z,0
2016-05-24T00:11:56.386Z,0
2016-05-24T00:12:56.545Z,0
2016-05-24T00:13:56.533Z,0
2016-05-24T00:14:56.394Z,0
2016-05-24T00:15:56.553Z,0
2016-05-24T00:16:57.041Z,0
2016-05-24T00:17:57.247Z,0
2016-05-24T00:18:57.030Z,0
2016-05-24T00:19:56.377Z,0
2016-05-24T00:21:10.961Z,0
2016-05-24T00:21:56.820Z,0
2016-05-24T00:22:56.525Z,0
2016-05-24T00:23:56.528Z,0
2016-05-24T00:24:56.530Z,0
2016-05-24T00:25:57.174Z,0
2016-05-24T00:26:56.520Z,0
2016-05-24T00:27:57.274Z,0
2016-05-24T00:28:57.276Z,0
2016-05-24T00:29:57.044Z,0
2016-05-24T00:30:56.515Z,0
2016-05-24T00:31:56.910Z,0
2016-05-24T00:32:56.365Z,0
2016-05-24T00:33:56.509Z,0
2016-05-24T00:34:56.495Z,0
2016-05-24T00:35:56.357Z,0
2016-05-24T00:36:56.344Z,0
2016-05-24T00:37:56.519Z,0
2016-05-24T00:38:56.350Z,0
2016-05-24T00:39:56.509Z,0
2016-05-24T00:40:56.496Z,0
2016-05-24T00:41:56.483Z,0
2016-05-24T00:42:56.486Z,0
2016-05-24T00:43:56.191Z,0
2016-05-24T00:44:56.350Z,0
2016-05-24T00:45:56.494Z,0
2016-05-24T00:46:56.497Z,0
2016-05-24T00:47:56.499Z,0
2016-05-24T00:48:56.330Z,0
2016-05-24T00:49:58.036Z,0
2016-05-24T00:50:56.351Z,0
2016-05-24T00:51:57.494Z,0
2016-05-24T00:52:57.466Z,0
2016-05-24T00:53:57.327Z,0
2016-05-24T00:54:56.377Z,0
2016-05-24T00:55:56.474Z,0
2016-05-24T00:56:56.649Z,0
2016-05-24T00:57:56.463Z,0
2016-05-24T00:58:56.544Z,0
2016-05-24T00:59:56.531Z,0
2016-05-24T01:00:56.467Z,0
2016-05-24T01:01:57.810Z,0
2016-05-24T01:02:56.529Z,0
2016-05-24T01:03:56.561Z,0
2016-05-24T01:04:56.966Z,0
2016-05-24T01:05:57.396Z,0
2016-05-24T01:06:56.456Z,0
2016-05-24T01:07:56.624Z,0
2016-05-24T01:08:56.622Z,0
2016-05-24T01:09:56.635Z,0
2016-05-24T01:10:56.645Z,0
2016-05-24T01:11:56.636Z,0
2016-05-24T01:12:56.643Z,0
2016-05-24T01:13:56.492Z,0
2016-05-24T01:14:56.656Z,0
2016-05-24T01:15:56.662Z,0
2016-05-24T01:16:56.649Z,0
2016-05-24T01:17:56.481Z,0
2016-05-24T01:18:56.641Z,0
2016-05-24T01:19:56.488Z,0
2016-05-24T01:20:56.648Z,0
2016-05-24T01:21:56.512Z,0
2016-05-24T01:22:56.639Z,0
2016-05-24T01:23:56.643Z,0
2016-05-24T01:24:56.473Z,0
2016-05-24T01:25:56.477Z,0
2016-05-24T01:26:56.635Z,0
2016-05-24T01:27:56.624Z,0
2016-05-24T01:28:56.485Z,0
2016-05-24T01:29:56.942Z,0
2016-05-24T01:30:56.632Z,0
2016-05-24T01:31:56.620Z,0
2016-05-24T01:32:56.623Z,0
2016-05-24T01:33:56.469Z,0
2016-05-24T01:34:57.627Z,0
2016-05-24T01:35:57.458Z,0
2016-05-24T01:36:56.507Z,0
2016-05-24T01:37:56.652Z,0
2016-05-24T01:38:56.608Z,0
2016-05-24T01:39:56.610Z,0
2016-05-24T01:40:56.300Z,0
2016-05-24T01:41:56.443Z,0
2016-05-24T01:42:56.461Z,0
2016-05-24T01:43:56.604Z,0
2016-05-24T01:44:57.655Z,0
2016-05-24T01:45:58.407Z,0
2016-05-24T01:46:56.801Z,0
2016-05-24T01:47:57.084Z,0
2016-05-24T01:48:56.587Z,0
2016-05-24T01:49:56.434Z,0
2016-05-24T01:50:56.593Z,0
2016-05-24T01:51:56.579Z,0
2016-05-24T01:52:56.582Z,0
2016-05-24T01:53:56.412Z,0
2016-05-24T01:54:56.587Z,0
2016-05-24T01:55:56.575Z,0
2016-05-24T01:56:56.578Z,0
2016-05-24T01:57:56.564Z,0
2016-05-24T01:58:56.567Z,0
2016-05-24T01:59:57.351Z,0
2016-05-24T02:00:56.417Z,0
2016-05-24T02:01:56.559Z,0
2016-05-24T02:02:56.422Z,0
2016-05-24T02:03:56.564Z,0
2016-05-24T02:04:56.552Z,0
2016-05-24T02:05:56.569Z,0
2016-05-24T02:06:56.417Z,0
2016-05-24T02:07:56.561Z,0
2016-05-24T02:08:58.531Z,0
2016-05-24T02:09:56.565Z,4
2016-05-24T02:10:56.552Z,4
2016-05-24T02:11:57.680Z,4
2016-05-24T02:12:57.183Z,0
2016-05-24T02:13:56.545Z,4
2016-05-24T02:14:57.204Z,4
2016-05-24T02:15:56.535Z,4
2016-05-24T02:16:56.381Z,4
2016-05-24T02:17:56.930Z,4
2016-05-24T02:18:56.387Z,4
2016-05-24T02:19:57.732Z,4
2016-05-24T02:20:56.533Z,4
2016-05-24T02:21:57.457Z,8
2016-05-24T02:22:57.178Z,8
2016-05-24T02:23:57.150Z,8
2016-05-24T02:24:56.528Z,8
2016-05-24T02:25:56.515Z,12
2016-05-24T02:26:56.361Z,12
2016-05-24T02:27:56.364Z,16
2016-05-24T02:28:56.507Z,16
2016-05-24T02:29:56.838Z,20
2016-05-24T02:30:56.497Z,24
2016-05-24T02:31:56.343Z,24
2016-05-24T02:32:56.345Z,28
2016-05-24T02:33:56.348Z,28
2016-05-24T02:34:56.491Z,36
2016-05-24T02:35:56.183Z,40
2016-05-24T02:36:56.497Z,48
2016-05-24T02:37:56.344Z,52
2016-05-24T02:38:56.486Z,56
2016-05-24T02:39:56.333Z,64
2016-05-24T02:40:56.477Z,76
2016-05-24T02:41:56.324Z,84
2016-05-24T02:42:56.327Z,96
2016-05-24T02:43:56.485Z,108
2016-05-24T02:44:56.971Z,120
2016-05-24T02:45:56.537Z,136
2016-05-24T02:46:56.555Z,152
2016-05-24T02:47:56.511Z,172
2016-05-24T02:48:56.546Z,192
2016-05-24T02:49:56.470Z,212
2016-05-24T02:50:56.316Z,236
2016-05-24T02:51:56.506Z,264
2016-05-24T02:52:56.540Z,288
2016-05-24T02:54:10.684Z,328
2016-05-24T02:54:56.749Z,352
2016-05-24T02:56:57.004Z,424
2016-05-24T02:58:10.632Z,468
2016-05-24T02:58:56.698Z,500
2016-05-24T02:59:56.887Z,540
2016-05-24T03:00:56.281Z,584
2016-05-24T03:01:56.283Z,632
2016-05-24T03:02:57.333Z,680
2016-05-24T03:03:57.429Z,732
2016-05-24T03:04:56.948Z,788
2016-05-24T03:05:56.278Z,848
2016-05-24T03:06:56.875Z,904
2016-05-24T03:08:10.956Z,988
2016-05-24T03:08:56.427Z,1040
2016-05-24T03:09:56.789Z,1108
2016-05-24T03:10:56.417Z,1184
2016-05-24T03:11:56.419Z,1260
2016-05-24T03:12:56.438Z,1336
2016-05-24T03:13:56.409Z,1412
2016-05-24T03:14:56.974Z,1492
2016-05-24T03:15:56.399Z,1572
2016-05-24T03:16:56.418Z,1648
2016-05-24T03:17:56.405Z,1732
2016-05-24T03:18:56.407Z,1824
2016-05-24T03:19:56.253Z,1912
2016-05-24T03:20:56.396Z,2012
2016-05-24T03:21:56.243Z,2120
2016-05-24T03:22:56.387Z,2232
2016-05-24T03:23:56.233Z,2352
2016-05-24T03:24:56.392Z,2480
2016-05-24T03:25:56.395Z,2620
2016-05-24T03:26:56.398Z,2768
2016-05-24T03:28:56.075Z,3072
2016-05-24T03:29:57.640Z,3228
2016-05-24T03:30:56.486Z,3392
2016-05-24T03:31:57.051Z,3564
2016-05-24T03:32:56.398Z,3744
2016-05-24T03:33:56.244Z,3932
2016-05-24T03:34:56.372Z,4128
2016-05-24T03:35:56.375Z,4332
2016-05-24T03:36:58.205Z,4556
2016-05-24T03:37:56.209Z,4744
2016-05-24T03:38:56.555Z,4924
2016-05-24T03:39:56.370Z,5120
2016-05-24T03:40:57.247Z,5336
2016-05-24T03:41:56.406Z,5532
2016-05-24T03:42:56.596Z,5712
2016-05-24T03:43:56.366Z,5876
2016-05-24T03:44:56.430Z,6016
2016-05-24T03:45:56.214Z,6272
2016-05-24T03:46:56.357Z,6428
2016-05-24T03:47:56.360Z,6544
2016-05-24T03:48:56.362Z,6728
2016-05-24T03:49:56.366Z,6952
2016-05-24T03:50:56.352Z,7092
2016-05-24T03:51:56.355Z,7228
2016-05-24T03:52:56.185Z,7432
2016-05-24T03:53:56.346Z,7512
2016-05-24T03:54:56.348Z,7620
2016-05-24T03:55:56.351Z,7812
2016-05-24T03:56:56.353Z,8072
2016-05-24T03:57:56.356Z,8228
2016-05-24T03:58:56.359Z,8380
2016-05-24T03:59:57.642Z,8504
2016-05-24T04:00:56.192Z,8640
2016-05-24T04:01:56.054Z,8860
2016-05-24T04:02:56.056Z,9064
2016-05-24T04:03:56.356Z,9200
2016-05-24T04:04:56.359Z,9448
2016-05-24T04:05:56.362Z,9620
2016-05-24T04:06:56.364Z,9768
2016-05-24T04:07:56.226Z,10000
2016-05-24T04:08:56.369Z,10156
2016-05-24T04:09:56.372Z,10384
2016-05-24T04:10:56.375Z,10848
2016-05-24T04:11:56.362Z,11040
2016-05-24T04:12:58.380Z,11080
2016-05-24T04:13:56.367Z,11368
2016-05-24T04:14:56.479Z,11560
2016-05-24T04:15:56.388Z,11832
2016-05-24T04:16:56.423Z,12136
2016-05-24T04:17:56.394Z,12196
2016-05-24T04:18:56.397Z,12132
2016-05-24T04:19:56.399Z,12212
2016-05-24T04:20:56.401Z,12492
2016-05-24T04:21:57.374Z,12228
2016-05-24T04:22:57.048Z,12332
2016-05-24T04:23:56.410Z,12524
2016-05-24T04:24:57.147Z,12668
2016-05-24T04:25:56.415Z,12444
2016-05-24T04:26:56.262Z,12484
2016-05-24T04:27:56.279Z,12692
2016-05-24T04:28:56.440Z,12724
2016-05-24T04:29:56.676Z,12992
2016-05-24T04:30:56.445Z,13384
2016-05-24T04:31:56.447Z,12624
2016-05-24T04:32:56.450Z,13332
2016-05-24T04:33:56.453Z,13348
2016-05-24T04:34:56.471Z,14084
2016-05-24T04:35:56.458Z,13928
2016-05-24T04:36:56.476Z,13556
2016-05-24T04:37:56.478Z,13256
2016-05-24T04:38:56.325Z,13284
2016-05-24T04:39:56.484Z,14224
2016-05-24T04:40:56.347Z,14540
2016-05-24T04:41:56.505Z,14240
2016-05-24T04:42:56.524Z,14400
2016-05-24T04:43:56.510Z,14624
2016-05-24T04:44:57.280Z,14240
2016-05-24T04:46:58.488Z,15424
2016-05-24T04:47:57.552Z,15200
2016-05-24T04:48:56.540Z,15712
2016-05-24T04:49:56.542Z,16096
2016-05-24T04:50:56.405Z,16064
2016-05-24T04:51:56.799Z,16896
2016-05-24T04:52:56.644Z,16672
2016-05-24T04:53:56.646Z,16928
2016-05-24T04:54:56.587Z,18048
2016-05-24T04:55:58.684Z,18368
2016-05-24T04:56:56.624Z,17856
2016-05-24T04:57:56.627Z,18016
2016-05-24T04:58:57.442Z,18272
2016-05-24T04:59:57.647Z,18784
2016-05-24T05:00:57.713Z,19456
2016-05-24T05:01:57.012Z,18624
2016-05-24T05:02:56.656Z,18112
2016-05-24T05:03:56.674Z,19712
2016-05-24T05:04:56.676Z,20384
2016-05-24T05:05:56.695Z,19392
2016-05-24T05:06:56.697Z,20096
2016-05-24T05:07:56.716Z,18912
2016-05-24T05:08:56.719Z,20448
2016-05-24T05:09:56.722Z,20384
2016-05-24T05:10:56.724Z,20544
2016-05-24T05:11:56.430Z,21152
2016-05-24T05:12:56.761Z,20480
2016-05-24T05:13:56.764Z,21184
2016-05-24T05:14:56.828Z,21536
2016-05-24T05:15:56.784Z,21184
2016-05-24T05:16:56.786Z,22944
2016-05-24T05:17:56.805Z,22784
2016-05-24T05:18:56.808Z,23104
2016-05-24T05:19:56.827Z,23104
2016-05-24T05:20:56.844Z,23552
2016-05-24T05:21:56.847Z,17280
2016-05-24T05:22:56.866Z,25984
2016-05-24T05:23:56.728Z,25568
2016-05-24T05:24:56.901Z,17344
2016-05-24T05:25:56.890Z,25312
2016-05-24T05:26:56.893Z,18976
2016-05-24T05:27:56.910Z,19616
2016-05-24T05:28:56.912Z,20896
2016-05-24T05:29:56.962Z,24224
2016-05-24T05:30:56.809Z,17856
2016-05-24T05:32:11.140Z,20160
2016-05-24T05:32:58.267Z,19872
2016-05-24T05:33:57.380Z,23168
2016-05-24T05:34:57.351Z,24928
2016-05-24T05:35:57.556Z,21568
2016-05-24T05:36:57.310Z,19776
2016-05-24T05:37:57.687Z,25504
2016-05-24T05:38:57.049Z,17888
2016-05-24T05:39:57.052Z,19392
2016-05-24T05:40:57.070Z,19040
2016-05-24T05:42:26.481Z,17440
2016-05-24T05:43:11.606Z,19904
2016-05-24T05:43:57.344Z,18400
2016-05-24T05:44:56.972Z,17696
2016-05-24T05:45:57.318Z,19936
2016-05-24T05:46:57.336Z,22432
2016-05-24T05:47:57.448Z,17440
2016-05-24T05:48:57.138Z,21088
2016-05-24T05:49:57.158Z,17440
2016-05-24T05:50:57.175Z,17536
2016-05-24T05:51:57.178Z,17856
2016-05-24T05:52:57.040Z,19456
2016-05-24T05:53:57.215Z,17824
2016-05-24T05:54:57.201Z,13840
2016-05-24T05:55:57.235Z,13924
2016-05-24T05:56:57.223Z,14716
2016-05-24T05:57:57.241Z,17216
2016-05-24T05:58:57.274Z,16384
2016-05-24T05:59:57.324Z,15488
2016-05-24T06:00:57.312Z,15248
2016-05-24T06:01:57.126Z,17792
2016-05-24T06:02:57.285Z,22656
2016-05-24T06:03:57.303Z,23328
2016-05-24T06:05:00.182Z,28288
2016-05-24T06:05:59.262Z,33056
2016-05-24T06:06:57.359Z,20096
2016-05-24T06:07:57.845Z,21792
2016-05-24T06:08:57.801Z,37024
2016-05-24T06:09:57.928Z,28320
2016-05-24T06:10:57.619Z,20000
2016-05-24T06:11:57.373Z,36384
2016-05-24T06:13:02.125Z,40320
2016-05-24T06:13:59.268Z,26528
2016-05-24T06:14:58.772Z,24864
2016-05-24T06:15:57.445Z,26976
2016-05-24T06:16:57.369Z,35552
2016-05-24T06:17:57.810Z,20832
2016-05-24T06:18:57.985Z,22496
2016-05-24T06:19:57.441Z,34656
2016-05-24T06:20:57.647Z,36640
2016-05-24T06:21:57.477Z,39520
2016-05-24T06:22:57.480Z,30816
2016-05-24T06:23:57.498Z,27776
2016-05-24T06:24:57.501Z,19744
2016-05-24T06:25:57.504Z,17248
2016-05-24T06:26:57.522Z,16224
2016-05-24T06:27:57.540Z,17472
2016-05-24T06:28:57.543Z,17728
2016-05-24T06:29:57.562Z,23840
2016-05-24T06:30:57.423Z,18656
2016-05-24T06:31:57.582Z,18688
2016-05-24T06:32:57.429Z,19008
2016-05-24T06:33:57.588Z,19552
2016-05-24T06:34:57.606Z,19360
2016-05-24T06:35:57.468Z,19712
2016-05-24T06:36:57.487Z,27136
2016-05-24T06:37:57.629Z,39616
2016-05-24T06:38:57.648Z,42048
2016-05-24T06:39:57.510Z,46784
2016-05-24T06:40:57.357Z,49088
2016-05-24T06:41:57.672Z,32512
2016-05-24T06:42:57.689Z,22016
2016-05-24T06:43:57.692Z,18496
2016-05-24T06:44:57.570Z,17248
2016-05-24T06:45:57.417Z,15584
2016-05-24T06:46:57.576Z,14488
2016-05-24T06:47:57.735Z,15164
2016-05-24T06:48:57.441Z,16512
2016-05-24T06:50:12.991Z,18752
2016-05-24T06:51:11.962Z,21024
2016-05-24T06:52:12.355Z,24032
2016-05-24T06:52:58.905Z,26496
2016-05-24T06:53:57.813Z,37888
2016-05-24T06:54:58.144Z,43552
2016-05-24T06:55:57.835Z,44320
2016-05-24T06:56:57.868Z,27328
2016-05-24T06:57:57.933Z,23488
2016-05-24T06:58:57.858Z,28384
2016-05-24T07:00:12.064Z,12144
2016-05-24T07:01:13.458Z,9944
2016-05-24T07:01:58.351Z,9724
2016-05-24T07:02:57.760Z,10588
2016-05-24T07:03:57.778Z,12328
2016-05-24T07:04:57.984Z,14364
2016-05-24T07:05:57.924Z,15288
2016-05-24T07:06:58.082Z,15184
2016-05-24T07:07:57.945Z,15716
2016-05-24T07:08:57.963Z,17152
2016-05-24T07:09:57.826Z,18624
2016-05-24T07:10:57.843Z,17888
2016-05-24T07:11:57.831Z,16736
2016-05-24T07:12:58.021Z,15360
2016-05-24T07:13:57.852Z,13908
2016-05-24T07:14:58.995Z,13664
2016-05-24T07:15:58.044Z,13756
2016-05-24T07:16:57.891Z,15616
2016-05-24T07:17:58.050Z,17568
2016-05-24T07:18:58.083Z,15228
2016-05-24T07:19:58.133Z,19008
2016-05-24T07:20:58.152Z,19744
2016-05-24T07:21:58.123Z,18720
2016-05-24T07:22:57.938Z,17792
2016-05-24T07:24:00.066Z,20160
2016-05-24T07:24:58.116Z,23456
2016-05-24T07:25:58.134Z,23808
2016-05-24T07:26:58.136Z,23008
2016-05-24T07:27:58.702Z,23968
2016-05-24T07:28:58.705Z,28384
2016-05-24T07:29:58.426Z,38112
2016-05-24T07:30:58.022Z,41632
2016-05-24T07:31:58.259Z,32416
2016-05-24T07:33:59.921Z,42720
2016-05-24T07:34:58.471Z,37728
2016-05-24T07:35:59.379Z,30304
2016-05-24T07:36:58.976Z,27872
2016-05-24T07:37:58.198Z,22752
2016-05-24T07:38:58.232Z,20448
2016-05-24T07:39:58.234Z,19328
2016-05-24T07:40:58.315Z,19840
2016-05-24T07:41:58.270Z,20448
2016-05-24T07:42:58.117Z,20640
2016-05-24T07:43:58.323Z,20672
2016-05-24T07:44:58.028Z,23488
2016-05-24T07:45:58.626Z,30880
2016-05-24T07:46:58.315Z,35648
2016-05-24T07:47:58.411Z,24448
2016-05-24T07:48:58.321Z,16896
2016-05-24T07:49:58.027Z,17120
2016-05-24T07:50:58.358Z,20320
2016-05-24T07:51:58.361Z,22240
2016-05-24T07:52:58.206Z,23136
2016-05-24T07:53:58.366Z,21280
2016-05-24T07:54:58.399Z,20800
2016-05-24T07:55:58.402Z,23808
2016-05-24T07:56:58.405Z,28704
2016-05-24T07:57:58.252Z,29920
2016-05-24T07:58:58.426Z,21888
2016-05-24T07:59:58.366Z,21472
2016-05-24T08:00:58.446Z,22272
2016-05-24T08:01:58.449Z,22752
2016-05-24T08:02:58.312Z,24160
2016-05-24T08:03:58.471Z,24448
2016-05-24T08:04:58.474Z,20480
2016-05-24T08:05:58.491Z,16544
2016-05-24T08:06:58.338Z,15348
2016-05-24T08:07:58.356Z,14952
2016-05-24T08:09:12.953Z,14144
2016-05-24T08:09:58.362Z,13524
2016-05-24T08:10:59.240Z,13076
2016-05-24T08:12:12.570Z,12792
2016-05-24T08:12:58.807Z,12268
2016-05-24T08:13:58.560Z,11588
2016-05-24T08:14:58.859Z,11468
2016-05-24T08:15:58.972Z,12608
2016-05-24T08:16:58.631Z,15228
2016-05-24T08:17:59.024Z,17856
2016-05-24T08:18:59.151Z,17056
2016-05-24T08:19:58.607Z,16128
2016-05-24T08:20:59.453Z,17088
2016-05-24T08:21:59.473Z,20384
2016-05-24T08:22:58.991Z,24928
2016-05-24T08:23:58.634Z,26496
2016-05-24T08:24:58.653Z,23072
2016-05-24T08:25:58.764Z,23264
2016-05-24T08:26:58.657Z,25760
2016-05-24T08:27:58.504Z,27136
2016-05-24T08:28:58.522Z,26688
2016-05-24T08:29:58.697Z,26400
2016-05-24T08:30:58.699Z,25376
2016-05-24T08:31:58.546Z,24992
2016-05-24T08:32:58.705Z,24512
2016-05-24T08:33:58.707Z,23648
2016-05-24T08:34:58.726Z,22272
2016-05-24T08:35:58.729Z,21888
2016-05-24T08:36:58.825Z,21888
2016-05-24T08:37:58.859Z,21600
2016-05-24T08:38:58.893Z,21312
2016-05-24T08:39:58.770Z,21440
2016-05-24T08:40:58.820Z,22144
2016-05-24T08:41:58.776Z,24256
2016-05-24T08:42:58.873Z,27904
2016-05-24T08:43:58.719Z,31168
2016-05-24T08:44:58.800Z,31616
2016-05-24T08:45:59.412Z,29344
2016-05-24T08:46:59.242Z,28480
2016-05-24T08:47:59.292Z,28864
2016-05-24T08:48:58.919Z,26848
2016-05-24T08:49:59.063Z,26336
2016-05-24T08:50:58.567Z,25760
2016-05-24T08:52:00.694Z,25568
2016-05-24T08:52:59.071Z,26336
2016-05-24T08:53:59.449Z,26176
2016-05-24T08:54:59.420Z,24384
2016-05-24T08:55:58.891Z,22784
2016-05-24T08:56:59.645Z,21344
2016-05-24T08:57:58.975Z,20096
2016-05-24T08:58:58.838Z,18976
2016-05-24T08:59:58.996Z,17504
2016-05-24T09:00:59.546Z,15936
2016-05-24T09:01:58.939Z,13740
2016-05-24T09:02:59.019Z,12000
2016-05-24T09:03:58.961Z,12068
2016-05-24T09:04:58.822Z,12140
2016-05-24T09:05:58.824Z,11544
2016-05-24T09:06:58.937Z,11596
2016-05-24T09:07:59.002Z,12140
2016-05-24T09:08:58.693Z,13072
2016-05-24T09:09:58.742Z,14536
2016-05-24T09:10:59.838Z,16032
2016-05-24T09:11:58.951Z,17472
2016-05-24T09:12:58.891Z,18400
2016-05-24T09:13:59.049Z,18240
2016-05-24T09:14:58.756Z,16800
2016-05-24T09:15:59.696Z,15152
2016-05-24T09:16:58.948Z,14396
2016-05-24T09:17:59.232Z,13908
2016-05-24T09:18:59.078Z,13776
2016-05-24T09:19:58.940Z,13828
2016-05-24T09:20:59.678Z,13876
2016-05-24T09:21:59.103Z,14040
2016-05-24T09:22:59.292Z,13956
2016-05-24T09:23:59.139Z,13388
2016-05-24T09:24:59.079Z,12056
2016-05-24T09:25:59.145Z,11044
2016-05-24T09:26:59.147Z,10208
2016-05-24T09:28:00.290Z,10468
2016-05-24T09:29:00.684Z,11276
2016-05-24T09:30:00.577Z,11804
2016-05-24T09:30:59.064Z,11348
2016-05-24T09:31:59.442Z,11340
2016-05-24T09:32:59.491Z,12424
2016-05-24T09:33:59.213Z,13588
2016-05-24T09:34:58.888Z,14660
2016-05-24T09:35:59.249Z,15076
2016-05-24T09:36:59.814Z,15052
2016-05-24T09:38:59.273Z,15032
2016-05-24T09:39:59.510Z,15428
2016-05-24T09:41:02.169Z,15608
2016-05-24T09:41:59.453Z,15064
2016-05-24T09:42:59.081Z,14220
2016-05-24T09:43:59.255Z,13328
2016-05-24T09:44:59.320Z,12924
2016-05-24T09:45:59.792Z,14228
2016-05-24T09:46:59.294Z,15904
2016-05-24T09:47:59.282Z,16192
2016-05-24T09:48:59.285Z,15732
2016-05-24T09:49:59.286Z,15936
2016-05-24T09:51:01.228Z,16384
2016-05-24T09:51:59.401Z,17344
2016-05-24T09:52:59.311Z,18048
2016-05-24T09:53:59.157Z,18816
2016-05-24T09:54:59.331Z,20160
2016-05-24T09:55:59.350Z,21088
2016-05-24T09:56:59.384Z,21856
2016-05-24T09:57:59.386Z,22816
2016-05-24T09:58:59.342Z,23776
2016-05-24T09:59:59.330Z,24448
2016-05-24T10:02:01.382Z,26144
2016-05-24T10:03:00.181Z,27712
2016-05-24T10:03:59.372Z,28480
2016-05-24T10:04:59.374Z,27776
2016-05-24T10:05:59.876Z,26528
2016-05-24T10:06:59.237Z,25216
2016-05-24T10:07:59.277Z,23392
2016-05-24T10:08:59.458Z,21984
2016-05-24T10:09:59.186Z,21920
2016-05-24T10:11:00.789Z,22816
2016-05-24T10:12:00.851Z,22496
2016-05-24T10:13:00.299Z,21152
2016-05-24T10:13:59.560Z,20256
2016-05-24T10:15:00.180Z,20416
2016-05-24T10:15:59.942Z,21504
2016-05-24T10:16:59.636Z,22944
2016-05-24T10:17:59.908Z,23744
2016-05-24T10:18:59.631Z,24128
2016-05-24T10:19:59.636Z,24288
2016-05-24T10:21:00.642Z,24256
2016-05-24T10:21:59.490Z,24544
2016-05-24T10:22:59.666Z,24960
2016-05-24T10:23:59.670Z,25728
2016-05-24T10:24:59.626Z,26336
2016-05-24T10:26:01.286Z,26176
2016-05-24T10:26:59.697Z,25568
2016-05-24T10:27:59.856Z,25120
2016-05-24T10:28:59.578Z,25568
2016-05-24T10:29:59.862Z,26560
2016-05-24T10:31:00.209Z,27040
2016-05-24T10:31:59.587Z,25280
2016-05-24T10:32:59.590Z,22848
2016-05-24T10:33:59.748Z,20992
2016-05-24T10:34:59.767Z,19456
2016-05-24T10:35:59.362Z,17952
2016-05-24T10:36:59.772Z,16352
2016-05-24T10:37:59.790Z,15148
2016-05-24T10:38:59.793Z,14912
2016-05-24T10:39:59.639Z,15428
2016-05-24T10:40:59.798Z,16352
2016-05-24T10:41:59.817Z,18496
2016-05-24T10:42:59.850Z,20672
2016-05-24T10:43:59.900Z,20800
2016-05-24T10:44:59.872Z,19712
2016-05-24T10:46:00.077Z,19392
2016-05-24T10:47:00.314Z,20608
2016-05-24T10:47:59.708Z,22688
2016-05-24T10:49:14.195Z,23808
2016-05-24T10:49:59.869Z,24832
2016-05-24T10:50:59.794Z,26016
2016-05-24T10:51:59.891Z,26112
2016-05-24T10:52:59.908Z,26240
2016-05-24T10:53:59.896Z,26944
2016-05-24T10:54:59.945Z,27392
2016-05-24T10:56:00.010Z,27552
2016-05-24T10:57:00.419Z,26752
2016-05-24T10:58:00.188Z,23616
2016-05-24T10:58:59.956Z,20000
2016-05-24T11:00:14.912Z,18624
2016-05-24T11:01:00.179Z,19520
2016-05-24T11:02:00.152Z,21312
2016-05-24T11:02:59.810Z,21824
2016-05-24T11:04:00.079Z,21216
2016-05-24T11:04:59.832Z,21088
2016-05-24T11:05:59.990Z,21568
2016-05-24T11:07:00.024Z,21696
2016-05-24T11:08:00.012Z,21632
2016-05-24T11:09:00.029Z,22080
2016-05-24T11:09:59.861Z,22688
2016-05-24T11:11:00.051Z,23040
2016-05-24T11:12:00.787Z,22912
2016-05-24T11:13:00.056Z,23360
2016-05-24T11:14:00.058Z,24448
2016-05-24T11:15:00.156Z,25440
2016-05-24T11:16:00.392Z,26304
2016-05-24T11:17:00.082Z,26720
2016-05-24T11:18:00.117Z,26656
2016-05-24T11:19:00.088Z,26272
2016-05-24T11:20:01.872Z,24736
2016-05-24T11:21:00.562Z,21984
2016-05-24T11:22:01.189Z,18912
2016-05-24T11:23:01.317Z,17824
2016-05-24T11:24:00.445Z,18304
2016-05-24T11:25:00.916Z,18880
2016-05-24T11:25:59.997Z,19648
2016-05-24T11:27:00.000Z,20896
2016-05-24T11:28:00.002Z,21888
2016-05-24T11:29:02.474Z,22272
2016-05-24T11:30:02.758Z,22304
2016-05-24T11:31:02.027Z,22240
2016-05-24T11:32:00.404Z,22592
2016-05-24T11:33:00.751Z,23328
2016-05-24T11:34:00.629Z,24576
2016-05-24T11:35:00.866Z,25088
2016-05-24T11:36:00.477Z,24960
2016-05-24T11:37:00.448Z,25120
2016-05-24T11:38:00.248Z,25696
2016-05-24T11:39:00.282Z,25696
2016-05-24T11:40:00.254Z,24736
2016-05-24T11:41:00.272Z,25472
2016-05-24T11:42:00.306Z,26080
2016-05-24T11:42:59.965Z,25504
2016-05-24T11:44:00.248Z,25440
2016-05-24T11:45:00.142Z,24832
2016-05-24T11:46:00.863Z,24352
2016-05-24T11:47:00.178Z,24128
2016-05-24T11:48:00.322Z,23808
2016-05-24T11:49:00.341Z,23008
2016-05-24T11:50:00.328Z,22528
2016-05-24T11:51:00.362Z,22752
2016-05-24T11:52:00.363Z,22912
2016-05-24T11:53:00.273Z,23040
2016-05-24T11:54:00.370Z,23296
2016-05-24T11:55:00.200Z,23904
2016-05-24T11:56:00.422Z,24576
2016-05-24T11:57:00.408Z,24992
2016-05-24T11:58:00.458Z,25536
2016-05-24T11:59:00.414Z,25952
2016-05-24T12:00:00.432Z,26432
2016-05-24T12:01:00.294Z,27104
2016-05-24T12:02:00.438Z,28192
2016-05-24T12:03:00.440Z,28288
2016-05-24T12:04:00.381Z,27744
2016-05-24T12:05:16.227Z,26400
2016-05-24T12:06:14.652Z,25312
2016-05-24T12:07:00.826Z,24192
2016-05-24T12:08:14.657Z,21792
2016-05-24T12:09:00.738Z,21024
2016-05-24T12:10:00.491Z,20768
2016-05-24T12:11:00.400Z,23168
2016-05-24T12:12:00.371Z,26112
2016-05-24T12:13:00.514Z,27872
2016-05-24T12:15:01.989Z,28224
2016-05-24T12:16:01.881Z,27296
2016-05-24T12:17:00.744Z,26464
2016-05-24T12:18:01.309Z,26048
2016-05-24T12:19:00.609Z,26080
2016-05-24T12:20:00.424Z,26688
2016-05-24T12:21:00.582Z,27264
2016-05-24T12:22:00.805Z,27904
2016-05-24T12:23:00.603Z,28608
2016-05-24T12:24:00.388Z,28896
2016-05-24T12:25:00.624Z,28512
2016-05-24T12:26:00.628Z,27648
2016-05-24T12:27:00.489Z,26688
2016-05-24T12:28:00.695Z,26176
2016-05-24T12:29:00.666Z,25408
2016-05-24T12:30:00.669Z,24416
2016-05-24T12:31:01.219Z,24288
2016-05-24T12:32:00.535Z,24320
2016-05-24T12:33:00.693Z,23168
2016-05-24T12:34:00.555Z,22880
2016-05-24T12:35:00.636Z,23072
2016-05-24T12:36:00.733Z,21600
2016-05-24T12:37:00.798Z,18784
2016-05-24T12:38:00.738Z,17472
2016-05-24T12:39:01.865Z,18400
2016-05-24T12:40:02.149Z,21248
2016-05-24T12:41:01.902Z,24800
2016-05-24T12:42:01.170Z,26464
2016-05-24T12:43:01.282Z,26720
2016-05-24T12:44:00.972Z,27008
2016-05-24T12:45:00.787Z,27168
2016-05-24T12:46:01.104Z,26912
2016-05-24T12:47:00.856Z,26528
2016-05-24T12:49:01.970Z,25888
2016-05-24T12:50:00.864Z,25664
2016-05-24T12:51:01.023Z,26080
2016-05-24T12:52:00.854Z,25760
2016-05-24T12:53:00.966Z,25440
2016-05-24T12:54:00.875Z,24704
2016-05-24T12:55:00.909Z,25408
2016-05-24T12:56:00.739Z,26016
2016-05-24T12:57:00.914Z,26080
2016-05-24T12:58:00.916Z,25632
2016-05-24T12:59:00.919Z,24800
2016-05-24T13:00:04.953Z,23392
2016-05-24T13:01:01.627Z,22432
2016-05-24T13:02:00.958Z,22080
2016-05-24T13:03:00.993Z,20992
2016-05-24T13:04:00.979Z,19680
2016-05-24T13:05:02.482Z,20000
2016-05-24T13:06:01.001Z,22304
2016-05-24T13:07:01.004Z,24256
2016-05-24T13:08:01.006Z,24480
2016-05-24T13:09:01.024Z,24224
2016-05-24T13:10:02.964Z,24320
2016-05-24T13:11:01.046Z,24032
2016-05-24T13:12:01.142Z,23136
2016-05-24T13:13:00.942Z,22720
2016-05-24T13:14:01.148Z,22560
2016-05-24T13:15:01.072Z,22784
2016-05-24T13:16:01.450Z,22752
2016-05-24T13:17:01.077Z,22752
2016-05-24T13:18:01.158Z,22944
2016-05-24T13:19:01.145Z,22880
2016-05-24T13:20:01.257Z,21888
2016-05-24T13:21:01.306Z,19616
2016-05-24T13:22:00.903Z,17376
2016-05-24T13:23:00.999Z,17024
2016-05-24T13:24:15.971Z,17472
2016-05-24T13:25:01.567Z,17856